Arlington, Alabama
Current Conditions -  °F | °C
As of 12:55 PM on Sunday 23 Nov 2014 (Local Time) from KDYA Reporting Station
Clear Clear  
Wind Chill: 66°   Ceiling: Unl
Heat Index: 66°   Visibility: 10mi
Dew Point: 66°   Wind: 9mph
Humidity: 100%   Direction: 170°S
Pressure: 29.56"   Gusts: 16mph
Location:  32.06°N, 87.59°W
Report Text: KDYA 231855Z AUTO 17008G14KT 10SM CLR 19/19 A2956 RMK AO2 T01880188
Loading
Personal Weather Stations






























Interactive Weather Map New forecast layout! Learn more

10-Day Weather Forecast

Advertisements
Track Severe Weather on mobile